createdAt,value
2022-10-20T00:00:49.632Z,1016.46
2022-10-20T00:01:50.265Z,1016.42
2022-10-20T00:02:50.882Z,1016.49
2022-10-20T00:03:51.511Z,1016.41
2022-10-20T00:04:52.056Z,1016.40
2022-10-20T00:05:52.615Z,1016.39
2022-10-20T00:06:53.242Z,1016.36
2022-10-20T00:07:53.785Z,1016.33
2022-10-20T00:08:54.402Z,1016.35
2022-10-20T00:09:54.996Z,1016.35
2022-10-20T00:10:55.546Z,1016.37
2022-10-20T00:11:56.128Z,1016.36
2022-10-20T00:12:56.666Z,1016.37
2022-10-20T00:13:57.211Z,1016.38
2022-10-20T00:14:57.750Z,1016.38
2022-10-20T00:15:58.296Z,1016.38
2022-10-20T00:16:58.909Z,1016.38
2022-10-20T00:17:59.450Z,1016.38
2022-10-20T00:18:59.994Z,1016.39
2022-10-20T00:20:00.546Z,1016.39
2022-10-20T00:21:01.090Z,1016.38
2022-10-20T00:22:01.673Z,1016.40
2022-10-20T00:23:02.220Z,1016.40
2022-10-20T00:24:02.768Z,1016.39
2022-10-20T00:25:03.313Z,1016.40
2022-10-20T00:26:03.857Z,1016.41
2022-10-20T00:27:04.493Z,1016.40
2022-10-20T00:28:05.050Z,1016.44
2022-10-20T00:29:05.689Z,1016.41
2022-10-20T00:30:06.283Z,1016.44
2022-10-20T00:31:06.834Z,1016.43
2022-10-20T00:32:07.587Z,1016.43
2022-10-20T00:33:08.143Z,1016.43
2022-10-20T00:34:08.685Z,1016.41
2022-10-20T00:35:09.227Z,1016.44
2022-10-20T00:36:09.780Z,1016.45
2022-10-20T00:37:10.344Z,1016.44
2022-10-20T00:38:10.925Z,1016.42
2022-10-20T00:39:11.528Z,1016.42
2022-10-20T00:40:12.074Z,1016.42
2022-10-20T00:41:12.637Z,1016.43
2022-10-20T00:42:13.224Z,1016.41
2022-10-20T00:43:13.760Z,1016.40
2022-10-20T00:44:14.313Z,1016.41
2022-10-20T00:45:14.880Z,1016.40
2022-10-20T00:46:15.415Z,1016.37
2022-10-20T00:47:16.009Z,1016.38
2022-10-20T00:48:16.550Z,1016.37
2022-10-20T00:49:17.098Z,1016.40
2022-10-20T00:50:17.652Z,1016.39
2022-10-20T00:51:18.200Z,1016.41
2022-10-20T00:52:18.825Z,1016.42
2022-10-20T00:53:19.373Z,1016.41
2022-10-20T00:54:19.917Z,1016.40
2022-10-20T00:55:20.470Z,1016.37
2022-10-20T00:56:21.011Z,1016.38
2022-10-20T00:57:21.660Z,1016.37
2022-10-20T00:58:22.213Z,1016.35
2022-10-20T00:59:22.757Z,1016.36
2022-10-20T01:00:23.308Z,1016.35
2022-10-20T01:01:23.902Z,1016.34
2022-10-20T01:02:24.575Z,1016.35
2022-10-20T01:03:25.123Z,1016.34
2022-10-20T01:04:25.657Z,1016.35
2022-10-20T01:05:26.203Z,1016.35
2022-10-20T01:06:26.755Z,1016.36
2022-10-20T01:07:27.376Z,1016.37
2022-10-20T01:08:27.968Z,1016.38
2022-10-20T01:09:28.587Z,1016.37
2022-10-20T01:10:29.131Z,1016.36
2022-10-20T01:11:29.680Z,1016.34
2022-10-20T01:12:30.261Z,1016.37
2022-10-20T01:13:30.798Z,1016.36
2022-10-20T01:14:31.350Z,1016.37
2022-10-20T01:15:31.901Z,1016.37
2022-10-20T01:16:32.449Z,1016.38
2022-10-20T01:17:33.353Z,1016.35
2022-10-20T01:18:33.590Z,1016.36
2022-10-20T01:19:34.140Z,1016.36
2022-10-20T01:20:34.680Z,1016.34
2022-10-20T01:21:35.307Z,1016.34
2022-10-20T01:22:35.888Z,1016.36
2022-10-20T01:23:36.434Z,1016.36
2022-10-20T01:24:36.970Z,1016.34
2022-10-20T01:25:37.523Z,1016.35
2022-10-20T01:26:38.091Z,1016.32
2022-10-20T01:27:39.055Z,1016.34
2022-10-20T01:28:39.250Z,1016.32
2022-10-20T01:29:39.819Z,1016.33
2022-10-20T01:30:40.360Z,1016.34
2022-10-20T01:31:40.913Z,1016.35
2022-10-20T01:32:41.527Z,1016.35
2022-10-20T01:33:42.074Z,1016.36
2022-10-20T01:34:42.616Z,1016.35
2022-10-20T01:35:43.164Z,1016.37
2022-10-20T01:36:43.716Z,1016.36
2022-10-20T01:37:51.916Z,1016.37
2022-10-20T01:38:45.198Z,1016.39
2022-10-20T01:39:45.742Z,1016.38
2022-10-20T01:40:46.290Z,1016.39
2022-10-20T01:41:46.852Z,1016.38
2022-10-20T01:42:47.432Z,1016.40
2022-10-20T01:43:47.997Z,1016.37
2022-10-20T01:44:48.564Z,1016.37
2022-10-20T01:45:49.113Z,1016.40
2022-10-20T01:46:49.660Z,1016.36
2022-10-20T01:47:50.406Z,1016.39
2022-10-20T01:48:50.950Z,1016.37
2022-10-20T01:49:51.496Z,1016.36
2022-10-20T01:50:52.042Z,1016.35
2022-10-20T01:51:52.599Z,1016.38
2022-10-20T01:52:53.228Z,1016.35
2022-10-20T01:53:53.770Z,1016.36
2022-10-20T01:54:54.306Z,1016.37
2022-10-20T01:55:54.840Z,1016.36
2022-10-20T01:56:55.392Z,1016.37
2022-10-20T01:57:56.026Z,1016.35
2022-10-20T01:58:56.571Z,1016.38
2022-10-20T01:59:57.114Z,1016.38
2022-10-20T02:01:57.255Z,1016.37
2022-10-20T02:02:59.068Z,1016.37
2022-10-20T02:03:59.613Z,1016.38
2022-10-20T02:05:00.169Z,1016.36
2022-10-20T02:06:00.709Z,1016.42
2022-10-20T02:07:01.255Z,1016.37
2022-10-20T02:08:01.870Z,1016.40
2022-10-20T02:09:02.463Z,1016.39
2022-10-20T02:10:03.037Z,1016.39
2022-10-20T02:11:03.580Z,1016.37
2022-10-20T02:12:04.142Z,1016.38
2022-10-20T02:13:04.713Z,1016.38
2022-10-20T02:14:05.258Z,1016.38
2022-10-20T02:15:05.896Z,1016.36
2022-10-20T02:16:06.442Z,1016.36
2022-10-20T02:17:06.990Z,1016.38
2022-10-20T02:18:07.677Z,1016.38
2022-10-20T02:19:08.220Z,1016.34
2022-10-20T02:20:08.759Z,1016.38
2022-10-20T02:21:09.309Z,1016.34
2022-10-20T02:22:09.856Z,1016.35
2022-10-20T02:23:10.422Z,1016.33
2022-10-20T02:24:10.976Z,1016.38
2022-10-20T02:25:11.521Z,1016.36
2022-10-20T02:26:12.075Z,1016.34
2022-10-20T02:27:12.621Z,1016.40
2022-10-20T02:28:13.209Z,1016.40
2022-10-20T02:29:13.755Z,1016.41
2022-10-20T02:30:14.304Z,1016.41
2022-10-20T02:31:14.848Z,1016.43
2022-10-20T02:32:15.418Z,1016.45
2022-10-20T02:33:16.145Z,1016.44
2022-10-20T02:34:16.691Z,1016.46
2022-10-20T02:35:17.249Z,1016.42
2022-10-20T02:36:17.797Z,1016.42
2022-10-20T02:37:18.339Z,1016.42
2022-10-20T02:38:18.969Z,1016.42
2022-10-20T02:39:19.512Z,1016.43
2022-10-20T02:40:20.065Z,1016.42
2022-10-20T02:41:20.608Z,1016.39
2022-10-20T02:42:21.147Z,1016.40
2022-10-20T02:43:21.719Z,1016.40
2022-10-20T02:44:22.266Z,1016.44
2022-10-20T02:45:22.811Z,1016.42
2022-10-20T02:46:23.345Z,1016.45
2022-10-20T02:47:23.894Z,1016.43
2022-10-20T02:48:24.490Z,1016.43
2022-10-20T02:49:25.038Z,1016.46
2022-10-20T02:50:25.585Z,1016.45
2022-10-20T02:51:26.133Z,1016.44
2022-10-20T02:52:26.685Z,1016.46
2022-10-20T02:53:27.409Z,1016.45
2022-10-20T02:54:27.962Z,1016.48
2022-10-20T02:55:28.497Z,1016.49
2022-10-20T02:56:30.989Z,1016.50
2022-10-20T02:57:29.762Z,1016.53
2022-10-20T02:58:30.512Z,1016.53
2022-10-20T02:59:31.055Z,1016.57
2022-10-20T03:00:31.629Z,1016.58
2022-10-20T03:01:32.243Z,1016.55
2022-10-20T03:02:32.812Z,1016.57
2022-10-20T03:03:33.506Z,1016.57
2022-10-20T03:04:34.068Z,1016.58
2022-10-20T03:05:34.618Z,1016.63
2022-10-20T03:06:35.163Z,1016.58
2022-10-20T03:07:36.150Z,1016.61
2022-10-20T03:08:36.768Z,1016.60
2022-10-20T03:09:36.907Z,1016.60
2022-10-20T03:10:37.453Z,1016.58
2022-10-20T03:11:38.000Z,1016.62
2022-10-20T03:12:38.554Z,1016.61
2022-10-20T03:13:39.211Z,1016.59
2022-10-20T03:14:39.745Z,1016.59
2022-10-20T03:15:40.291Z,1016.60
2022-10-20T03:16:40.839Z,1016.59
2022-10-20T03:17:41.375Z,1016.64
2022-10-20T03:18:41.990Z,1016.62
2022-10-20T03:19:42.538Z,1016.64
2022-10-20T03:20:43.074Z,1016.65
2022-10-20T03:21:43.625Z,1016.65
2022-10-20T03:22:44.168Z,1016.66
2022-10-20T03:23:44.750Z,1016.66
2022-10-20T03:24:45.294Z,1016.64
2022-10-20T03:25:45.844Z,1016.62
2022-10-20T03:26:46.390Z,1016.64
2022-10-20T03:27:46.931Z,1016.63
2022-10-20T03:28:47.570Z,1016.62
2022-10-20T03:29:48.132Z,1016.63
2022-10-20T03:30:48.675Z,1016.64
2022-10-20T03:32:48.780Z,1016.65
2022-10-20T03:33:50.388Z,1016.65
2022-10-20T03:34:50.935Z,1016.66
2022-10-20T03:35:51.496Z,1016.66
2022-10-20T03:36:52.041Z,1016.66
2022-10-20T03:37:52.604Z,1016.68
2022-10-20T03:38:53.173Z,1016.68
2022-10-20T03:39:53.716Z,1016.70
2022-10-20T03:40:54.319Z,1016.67
2022-10-20T03:41:54.902Z,1016.70
2022-10-20T03:42:55.446Z,1016.73
2022-10-20T03:43:56.019Z,1016.73
2022-10-20T03:44:56.556Z,1016.71
2022-10-20T03:45:57.109Z,1016.72
2022-10-20T03:46:57.652Z,1016.72
2022-10-20T03:47:58.191Z,1016.70
2022-10-20T03:48:58.794Z,1016.71
2022-10-20T03:49:59.387Z,1016.69
2022-10-20T03:50:59.960Z,1016.71
2022-10-20T03:52:00.504Z,1016.70
2022-10-20T03:53:01.054Z,1016.73
2022-10-20T03:54:01.690Z,1016.73
2022-10-20T03:55:02.235Z,1016.74
2022-10-20T03:56:02.792Z,1016.74
2022-10-20T03:57:06.867Z,1016.79
2022-10-20T03:58:03.955Z,1016.82
2022-10-20T04:00:04.187Z,1016.83
2022-10-20T04:01:05.738Z,1016.81
2022-10-20T04:02:06.330Z,1016.82
2022-10-20T04:03:06.902Z,1016.83
2022-10-20T04:04:07.659Z,1016.84
2022-10-20T04:05:08.209Z,1016.85
2022-10-20T04:06:08.759Z,1016.84
2022-10-20T04:07:09.304Z,1016.85
2022-10-20T04:08:09.893Z,1016.85
2022-10-20T04:09:10.568Z,1016.88
2022-10-20T04:10:11.121Z,1016.87
2022-10-20T04:11:11.668Z,1016.89
2022-10-20T04:12:12.222Z,1016.89
2022-10-20T04:13:12.720Z,1016.87
2022-10-20T04:14:13.309Z,1016.89
2022-10-20T04:15:13.812Z,1016.90
2022-10-20T04:16:14.302Z,1016.91
2022-10-20T04:17:14.805Z,1016.92
2022-10-20T04:18:15.299Z,1016.93
2022-10-20T04:19:16.342Z,1016.95
2022-10-20T04:20:16.858Z,1016.94
2022-10-20T04:21:17.351Z,1016.92
2022-10-20T04:22:17.839Z,1016.93
2022-10-20T04:23:18.340Z,1016.95
2022-10-20T04:24:18.864Z,1016.93
2022-10-20T04:25:19.356Z,1016.94
2022-10-20T04:26:20.345Z,1016.94
2022-10-20T04:27:21.337Z,1016.94
2022-10-20T04:28:22.337Z,1016.98
2022-10-20T04:29:22.891Z,1016.99
2022-10-20T04:30:23.383Z,1016.98
2022-10-20T04:31:24.378Z,1016.99
2022-10-20T04:32:24.914Z,1017.00
2022-10-20T04:33:25.422Z,1017.04
2022-10-20T04:34:25.983Z,1017.03
2022-10-20T04:35:26.474Z,1017.03
2022-10-20T04:36:26.977Z,1017.02
2022-10-20T04:37:27.471Z,1017.04
2022-10-20T04:38:27.970Z,1017.07
2022-10-20T04:39:28.497Z,1017.06
2022-10-20T04:40:28.991Z,1017.06
2022-10-20T04:41:29.497Z,1017.08
2022-10-20T04:42:29.992Z,1017.07
2022-10-20T04:43:30.507Z,1017.10
2022-10-20T04:44:31.219Z,1017.09
2022-10-20T04:45:31.835Z,1017.09
2022-10-20T04:46:32.342Z,1017.11
2022-10-20T04:47:32.838Z,1017.16
2022-10-20T04:48:33.350Z,1017.14
2022-10-20T04:49:33.902Z,1017.15
2022-10-20T04:50:34.394Z,1017.19
2022-10-20T04:51:35.572Z,1017.20
2022-10-20T04:52:35.673Z,1017.17
2022-10-20T04:53:36.246Z,1017.19
2022-10-20T04:54:36.811Z,1017.18
2022-10-20T04:55:37.298Z,1017.20
2022-10-20T04:56:38.376Z,1017.20
2022-10-20T04:57:39.168Z,1017.21
2022-10-20T04:58:39.527Z,1017.24
2022-10-20T04:59:40.601Z,1017.24
2022-10-20T05:00:42.359Z,1017.24
2022-10-20T05:01:41.957Z,1017.24
2022-10-20T05:02:42.532Z,1017.25
2022-10-20T05:03:43.195Z,1017.23
2022-10-20T05:04:44.253Z,1017.26
2022-10-20T05:05:44.745Z,1017.25
2022-10-20T05:06:46.055Z,1017.28
2022-10-20T05:07:46.574Z,1017.29
2022-10-20T05:08:47.122Z,1017.28
2022-10-20T05:09:47.693Z,1017.29
2022-10-20T05:10:49.044Z,1017.29
2022-10-20T05:12:24.092Z,1017.31
2022-10-20T05:13:23.030Z,1017.32
2022-10-20T05:13:50.854Z,1017.33
2022-10-20T05:14:51.511Z,1017.35
2022-10-20T05:15:52.846Z,1017.36
2022-10-20T05:16:53.314Z,1017.37
2022-10-20T05:17:53.317Z,1017.36
2022-10-20T05:18:53.813Z,1017.37
2022-10-20T05:19:54.862Z,1017.39
2022-10-20T05:21:08.391Z,1017.39
2022-10-20T05:21:56.210Z,1017.41
2022-10-20T05:22:56.709Z,1017.41
2022-10-20T05:23:57.195Z,1017.43
2022-10-20T05:25:04.037Z,1017.41
2022-10-20T05:25:59.072Z,1017.45
2022-10-20T05:26:59.560Z,1017.46
2022-10-20T05:28:00.057Z,1017.46
2022-10-20T05:29:00.567Z,1017.48
2022-10-20T05:30:01.120Z,1017.48
2022-10-20T05:31:01.804Z,1017.51
2022-10-20T05:32:02.365Z,1017.51
2022-10-20T05:33:03.791Z,1017.53
2022-10-20T05:34:06.285Z,1017.56
2022-10-20T05:35:04.831Z,1017.55
2022-10-20T05:36:05.322Z,1017.56
2022-10-20T05:37:05.943Z,1017.54
2022-10-20T05:38:06.437Z,1017.56
2022-10-20T05:39:07.508Z,1017.56
2022-10-20T05:40:08.034Z,1017.57
2022-10-20T05:41:08.564Z,1017.59
2022-10-20T05:42:09.557Z,1017.61
2022-10-20T05:43:10.061Z,1017.59
2022-10-20T05:44:10.599Z,1017.60
2022-10-20T05:45:11.383Z,1017.64
2022-10-20T05:46:11.886Z,1017.64
2022-10-20T05:47:13.045Z,1017.65
2022-10-20T05:48:13.035Z,1017.68
2022-10-20T05:49:13.540Z,1017.68
2022-10-20T05:50:14.124Z,1017.69
2022-10-20T05:51:15.283Z,1017.68
2022-10-20T05:52:15.598Z,1017.70
2022-10-20T05:53:16.584Z,1017.73
2022-10-20T05:54:17.581Z,1017.73
2022-10-20T05:55:18.644Z,1017.76
2022-10-20T05:56:19.137Z,1017.77
2022-10-20T05:57:20.127Z,1017.78
2022-10-20T05:58:22.991Z,1017.81
2022-10-20T05:59:21.554Z,1017.80
2022-10-20T06:00:22.151Z,1017.81
2022-10-20T06:01:22.739Z,1017.84
2022-10-20T06:02:23.332Z,1017.84
2022-10-20T06:03:28.127Z,1017.85
2022-10-20T06:04:24.362Z,1017.88
2022-10-20T06:05:24.913Z,1017.89
2022-10-20T06:06:25.444Z,1017.89
2022-10-20T06:07:25.944Z,1017.89
2022-10-20T06:08:26.960Z,1017.91
2022-10-20T06:09:27.466Z,1017.91
2022-10-20T06:10:28.501Z,1017.93
2022-10-20T06:11:29.023Z,1017.94
2022-10-20T06:12:29.520Z,1017.94
2022-10-20T06:13:30.009Z,1017.93
2022-10-20T06:14:31.001Z,1017.95
2022-10-20T06:15:31.521Z,1017.96
2022-10-20T06:16:32.022Z,1017.95
2022-10-20T06:17:32.520Z,1017.97
2022-10-20T06:18:33.167Z,1017.96
2022-10-20T06:19:33.663Z,1017.97
2022-10-20T06:20:34.711Z,1017.96
2022-10-20T06:21:35.293Z,1017.97
2022-10-20T06:22:36.233Z,1017.98
2022-10-20T06:23:36.403Z,1017.99
2022-10-20T06:24:36.919Z,1017.98
2022-10-20T06:25:37.474Z,1017.98
2022-10-20T06:26:38.227Z,1018.00
2022-10-20T06:27:38.719Z,1017.98
2022-10-20T06:28:39.715Z,1017.97
2022-10-20T06:29:40.268Z,1017.99
2022-10-20T06:30:40.811Z,1017.99
2022-10-20T06:31:41.318Z,1017.97
2022-10-20T06:32:41.835Z,1017.99
2022-10-20T06:33:42.331Z,1017.98
2022-10-20T06:34:42.825Z,1017.99
2022-10-20T06:35:43.390Z,1017.99
2022-10-20T06:36:43.885Z,1018.00
2022-10-20T06:37:44.376Z,1018.00
2022-10-20T06:38:44.976Z,1018.01
2022-10-20T06:39:45.476Z,1018.04
2022-10-20T06:40:45.996Z,1018.05
2022-10-20T06:41:46.487Z,1018.05
2022-10-20T06:42:47.527Z,1018.06
2022-10-20T06:43:48.085Z,1018.07
2022-10-20T06:44:48.575Z,1018.08
2022-10-20T06:45:49.227Z,1018.07
2022-10-20T06:46:49.725Z,1018.07
2022-10-20T06:47:50.378Z,1018.08
2022-10-20T06:48:53.020Z,1018.09
2022-10-20T06:49:51.491Z,1018.08
2022-10-20T06:50:52.570Z,1018.08
2022-10-20T06:51:53.079Z,1018.08
2022-10-20T06:52:53.572Z,1018.08
2022-10-20T06:53:55.385Z,1018.08
2022-10-20T06:54:55.539Z,1018.08
2022-10-20T06:55:55.975Z,1018.09
2022-10-20T06:56:56.465Z,1018.08
2022-10-20T06:57:57.463Z,1018.06
2022-10-20T06:58:57.959Z,1018.07
2022-10-20T06:59:58.592Z,1018.06
2022-10-20T07:01:00.003Z,1018.06
2022-10-20T07:02:00.086Z,1018.06
2022-10-20T07:03:00.813Z,1018.08
2022-10-20T07:04:01.355Z,1018.07
2022-10-20T07:05:02.591Z,1018.05
2022-10-20T07:06:03.146Z,1018.06
2022-10-20T07:07:03.644Z,1018.06
2022-10-20T07:08:04.133Z,1018.04
2022-10-20T07:09:04.750Z,1018.05
2022-10-20T07:10:05.332Z,1018.04
2022-10-20T07:11:05.861Z,1018.05
2022-10-20T07:12:06.450Z,1018.05
2022-10-20T07:13:07.059Z,1018.05
2022-10-20T07:14:07.828Z,1018.07
2022-10-20T07:15:08.326Z,1018.07
2022-10-20T07:16:08.852Z,1018.09
2022-10-20T07:17:09.349Z,1018.10
2022-10-20T07:18:10.340Z,1018.11
2022-10-20T07:19:11.332Z,1018.12
2022-10-20T07:20:12.090Z,1018.13
2022-10-20T07:21:12.692Z,1018.13
2022-10-20T07:22:13.194Z,1018.13
2022-10-20T07:23:13.748Z,1018.12
2022-10-20T07:24:14.248Z,1018.11
2022-10-20T07:25:14.907Z,1018.10
2022-10-20T07:26:16.698Z,1018.10
2022-10-20T07:27:16.199Z,1018.07
2022-10-20T07:28:16.707Z,1018.07
2022-10-20T07:29:17.202Z,1018.05
2022-10-20T07:30:18.193Z,1018.05
2022-10-20T07:31:19.217Z,1018.04
2022-10-20T07:32:19.722Z,1018.02
2022-10-20T07:33:20.219Z,1018.01
2022-10-20T07:34:25.762Z,1017.99
2022-10-20T07:35:21.577Z,1018.00
2022-10-20T07:36:22.268Z,1017.99
2022-10-20T07:37:22.771Z,1018.00
2022-10-20T07:38:23.265Z,1018.00
2022-10-20T07:39:23.770Z,1018.02
2022-10-20T07:41:24.475Z,1018.06
2022-10-20T07:42:25.982Z,1018.08
2022-10-20T07:43:26.482Z,1018.10
2022-10-20T07:44:26.986Z,1018.11
2022-10-20T07:45:27.983Z,1018.10
2022-10-20T07:46:28.531Z,1018.11
2022-10-20T07:47:29.021Z,1018.08
2022-10-20T07:48:29.526Z,1018.06
2022-10-20T07:49:48.026Z,1018.05
2022-10-20T07:50:30.770Z,1018.05
2022-10-20T07:51:31.455Z,1018.05
2022-10-20T07:52:31.983Z,1018.07
2022-10-20T07:53:32.470Z,1018.07
2022-10-20T07:54:33.483Z,1018.07
2022-10-20T07:55:38.741Z,1018.07
2022-10-20T07:56:34.910Z,1018.07
2022-10-20T07:57:35.406Z,1018.05
2022-10-20T07:58:35.908Z,1018.04
2022-10-20T07:59:36.899Z,1018.04
2022-10-20T08:00:37.935Z,1018.04
2022-10-20T08:01:38.569Z,1018.05
2022-10-20T08:02:39.701Z,1018.06
2022-10-20T08:03:39.787Z,1018.09
2022-10-20T08:04:40.279Z,1018.10
2022-10-20T08:05:40.773Z,1018.11
2022-10-20T08:06:41.366Z,1018.11
2022-10-20T08:07:41.862Z,1018.11
2022-10-20T08:08:42.400Z,1018.11
2022-10-20T08:09:42.909Z,1018.13
2022-10-20T08:10:43.906Z,1018.13
2022-10-20T08:11:44.596Z,1018.13
2022-10-20T08:12:45.092Z,1018.14
2022-10-20T08:13:45.622Z,1018.13
2022-10-20T08:14:47.444Z,1018.14
2022-10-20T08:15:47.269Z,1018.15
2022-10-20T08:16:48.067Z,1018.15
2022-10-20T08:17:48.560Z,1018.13
2022-10-20T08:18:52.775Z,1018.12
2022-10-20T08:19:51.272Z,1018.09
2022-10-20T08:20:50.768Z,1018.10
2022-10-20T08:21:51.304Z,1018.10
2022-10-20T08:22:51.805Z,1018.11
2022-10-20T08:23:52.302Z,1018.11
2022-10-20T08:24:52.794Z,1018.12
2022-10-20T08:25:53.288Z,1018.11
2022-10-20T08:26:53.810Z,1018.12
2022-10-20T08:27:54.383Z,1018.12
2022-10-20T08:28:54.943Z,1018.13
2022-10-20T08:30:12.382Z,1018.13
2022-10-20T08:30:56.785Z,1018.14
2022-10-20T08:31:57.323Z,1018.13
2022-10-20T08:32:57.813Z,1018.14
2022-10-20T08:33:58.650Z,1018.14
2022-10-20T08:34:59.264Z,1018.14
2022-10-20T08:35:59.808Z,1018.15
2022-10-20T08:37:00.502Z,1018.15
2022-10-20T08:38:01.008Z,1018.15
2022-10-20T08:39:05.103Z,1018.15
2022-10-20T08:40:02.280Z,1018.14
2022-10-20T08:41:03.073Z,1018.15
2022-10-20T08:42:08.470Z,1018.14
2022-10-20T08:43:04.478Z,1018.15
2022-10-20T08:44:06.355Z,1018.15
2022-10-20T08:45:05.874Z,1018.15
2022-10-20T08:46:06.422Z,1018.14
2022-10-20T08:47:06.974Z,1018.13
2022-10-20T08:48:07.681Z,1018.13
2022-10-20T08:49:08.199Z,1018.12
2022-10-20T08:50:08.690Z,1018.11
2022-10-20T08:51:09.691Z,1018.12
2022-10-20T08:52:10.783Z,1018.11
2022-10-20T08:53:10.786Z,1018.12
2022-10-20T08:54:11.277Z,1018.12
2022-10-20T08:55:12.355Z,1018.12
2022-10-20T08:56:12.938Z,1018.13
2022-10-20T08:57:13.515Z,1018.13
2022-10-20T08:58:14.009Z,1018.12
2022-10-20T08:59:15.011Z,1018.11
2022-10-20T09:00:15.555Z,1018.10
2022-10-20T09:01:17.928Z,1018.08
2022-10-20T09:03:27.056Z,1018.06
2022-10-20T09:04:28.553Z,1018.04
2022-10-20T09:05:29.561Z,1018.03
2022-10-20T09:06:30.070Z,1018.03
2022-10-20T09:07:38.546Z,1018.02
2022-10-20T09:08:31.424Z,1018.01
2022-10-20T09:09:31.945Z,1017.99
2022-10-20T09:10:32.437Z,1017.98
2022-10-20T09:11:32.927Z,1017.97
2022-10-20T09:12:34.539Z,1017.95
2022-10-20T09:13:34.604Z,1017.93
2022-10-20T09:14:35.147Z,1017.92
2022-10-20T09:15:35.655Z,1017.90
2022-10-20T09:16:40.728Z,1017.88
2022-10-20T09:17:37.627Z,1017.87
2022-10-20T09:18:38.347Z,1017.86
2022-10-20T09:19:38.389Z,1017.84
2022-10-20T09:20:39.444Z,1017.85
2022-10-20T09:21:39.947Z,1017.85
2022-10-20T09:22:40.512Z,1017.83
2022-10-20T09:23:42.461Z,1017.85
2022-10-20T09:24:41.731Z,1017.85
2022-10-20T09:25:47.941Z,1017.85
2022-10-20T09:26:58.191Z,1017.85
2022-10-20T09:28:07.340Z,1017.85
2022-10-20T09:29:08.689Z,1017.85
2022-10-20T09:29:45.599Z,1017.85
2022-10-20T09:30:45.740Z,1017.85
2022-10-20T09:31:46.317Z,1017.84
2022-10-20T09:32:47.790Z,1017.84
2022-10-20T09:33:48.374Z,1017.83
2022-10-20T09:34:48.434Z,1017.83
2022-10-20T09:35:48.940Z,1017.83
2022-10-20T09:36:49.444Z,1017.84
2022-10-20T09:37:49.987Z,1017.84
2022-10-20T09:38:50.569Z,1017.83
2022-10-20T09:39:55.155Z,1017.84
2022-10-20T09:40:51.738Z,1017.83
2022-10-20T09:41:52.801Z,1017.82
2022-10-20T09:42:53.348Z,1017.83
2022-10-20T09:43:57.174Z,1017.83
2022-10-20T09:44:54.612Z,1017.83
2022-10-20T09:45:55.117Z,1017.83
2022-10-20T09:46:55.617Z,1017.84
2022-10-20T09:47:56.829Z,1017.85
2022-10-20T09:48:57.351Z,1017.86
2022-10-20T09:50:00.894Z,1017.85
2022-10-20T09:50:58.883Z,1017.84
2022-10-20T09:51:59.672Z,1017.84
2022-10-20T09:53:00.238Z,1017.84
2022-10-20T09:54:00.778Z,1017.84
2022-10-20T09:55:01.286Z,1017.84
2022-10-20T09:56:02.277Z,1017.84
2022-10-20T09:57:03.283Z,1017.85
2022-10-20T09:58:03.804Z,1017.85
2022-10-20T09:59:04.385Z,1017.85
2022-10-20T10:00:25.182Z,1017.85
2022-10-20T10:01:05.834Z,1017.85
2022-10-20T10:02:06.414Z,1017.85
2022-10-20T10:03:07.406Z,1017.84
2022-10-20T10:04:11.023Z,1017.84
2022-10-20T10:05:09.154Z,1017.83
2022-10-20T10:06:09.769Z,1017.81
2022-10-20T10:07:10.264Z,1017.80
2022-10-20T10:08:10.795Z,1017.81
2022-10-20T10:09:11.499Z,1017.81
2022-10-20T10:10:12.062Z,1017.81
2022-10-20T10:11:12.554Z,1017.81
2022-10-20T10:12:13.546Z,1017.81
2022-10-20T10:13:14.044Z,1017.79
2022-10-20T10:14:14.888Z,1017.78
2022-10-20T10:15:15.385Z,1017.77
2022-10-20T10:16:18.504Z,1017.78
2022-10-20T10:17:35.105Z,1017.77
2022-10-20T10:18:17.408Z,1017.77
2022-10-20T10:19:17.973Z,1017.78
2022-10-20T10:20:18.505Z,1017.80
2022-10-20T10:21:18.999Z,1017.83
2022-10-20T10:22:19.541Z,1017.85
2022-10-20T10:23:20.102Z,1017.85
2022-10-20T10:24:20.665Z,1017.87
2022-10-20T10:25:21.167Z,1017.87
2022-10-20T10:26:22.101Z,1017.88
2022-10-20T10:27:22.594Z,1017.88
2022-10-20T10:28:23.669Z,1017.90
2022-10-20T10:29:24.222Z,1017.90
2022-10-20T10:30:24.715Z,1017.89
2022-10-20T10:31:25.895Z,1017.88
2022-10-20T10:32:26.411Z,1017.86
2022-10-20T10:33:26.902Z,1017.82
2022-10-20T10:34:27.426Z,1017.83
2022-10-20T10:35:27.919Z,1017.85
2022-10-20T10:36:28.445Z,1017.87
2022-10-20T10:37:32.294Z,1017.84
2022-10-20T10:38:29.973Z,1017.81
2022-10-20T10:39:30.667Z,1017.83
2022-10-20T10:40:31.244Z,1017.83
2022-10-20T10:41:31.764Z,1017.80
2022-10-20T10:42:32.272Z,1017.80
2022-10-20T10:43:32.772Z,1017.81
2022-10-20T10:44:33.381Z,1017.82
2022-10-20T10:45:33.908Z,1017.79
2022-10-20T10:46:34.471Z,1017.78
2022-10-20T10:47:37.831Z,1017.75
2022-10-20T10:48:35.891Z,1017.73
2022-10-20T10:49:36.410Z,1017.75
2022-10-20T10:50:36.907Z,1017.72
2022-10-20T10:51:37.482Z,1017.72
2022-10-20T10:52:38.247Z,1017.73
2022-10-20T10:53:38.861Z,1017.74
2022-10-20T10:54:39.505Z,1017.71
2022-10-20T10:55:54.688Z,1017.70
2022-10-20T10:56:40.953Z,1017.70
2022-10-20T10:57:41.474Z,1017.68
2022-10-20T10:58:42.002Z,1017.66
2022-10-20T10:59:42.640Z,1017.66
2022-10-20T11:00:43.435Z,1017.65
2022-10-20T11:01:43.955Z,1017.65
2022-10-20T11:02:44.957Z,1017.64
2022-10-20T11:03:45.449Z,1017.60
2022-10-20T11:04:45.982Z,1017.61
2022-10-20T11:05:46.474Z,1017.62
2022-10-20T11:06:47.466Z,1017.60
2022-10-20T11:07:48.457Z,1017.58
2022-10-20T11:08:49.550Z,1017.58
2022-10-20T11:09:50.133Z,1017.61
2022-10-20T11:10:50.631Z,1017.61
2022-10-20T11:11:51.631Z,1017.62
2022-10-20T11:12:52.138Z,1017.65
2022-10-20T11:13:52.629Z,1017.67
2022-10-20T11:14:53.653Z,1017.65
2022-10-20T11:15:54.158Z,1017.65
2022-10-20T11:16:54.648Z,1017.63
2022-10-20T11:17:55.651Z,1017.60
2022-10-20T11:18:56.141Z,1017.58
2022-10-20T11:19:57.175Z,1017.55
2022-10-20T11:20:57.671Z,1017.53
2022-10-20T11:21:58.662Z,1017.52
2022-10-20T11:22:59.649Z,1017.49
2022-10-20T11:24:00.680Z,1017.53
2022-10-20T11:25:01.208Z,1017.56
2022-10-20T11:26:01.720Z,1017.57
2022-10-20T11:27:02.211Z,1017.57
2022-10-20T11:28:03.216Z,1017.59
2022-10-20T11:29:03.697Z,1017.58
2022-10-20T11:30:04.722Z,1017.58
2022-10-20T11:31:05.217Z,1017.58
2022-10-20T11:32:05.726Z,1017.58
2022-10-20T11:33:06.232Z,1017.58
2022-10-20T11:34:06.758Z,1017.59
2022-10-20T11:35:07.459Z,1017.59
2022-10-20T11:36:07.991Z,1017.61
2022-10-20T11:37:08.492Z,1017.61
2022-10-20T11:38:08.974Z,1017.60
2022-10-20T11:39:10.007Z,1017.60
2022-10-20T11:40:10.587Z,1017.60
2022-10-20T11:41:11.080Z,1017.61
2022-10-20T11:42:11.568Z,1017.61
2022-10-20T11:43:12.600Z,1017.60
2022-10-20T11:44:13.109Z,1017.59
2022-10-20T11:45:13.647Z,1017.58
2022-10-20T11:46:14.145Z,1017.58
2022-10-20T11:47:14.638Z,1017.57
2022-10-20T11:48:15.136Z,1017.56
2022-10-20T11:49:15.630Z,1017.56
2022-10-20T11:50:16.160Z,1017.53
2022-10-20T11:51:16.657Z,1017.54
2022-10-20T11:52:17.149Z,1017.54
2022-10-20T11:53:18.150Z,1017.54
2022-10-20T11:54:18.673Z,1017.54
2022-10-20T11:55:19.221Z,1017.56
2022-10-20T11:56:19.715Z,1017.57
2022-10-20T11:57:20.225Z,1017.57
2022-10-20T11:58:20.726Z,1017.55
2022-10-20T11:59:21.222Z,1017.54
2022-10-20T12:00:22.301Z,1017.53
2022-10-20T12:01:22.793Z,1017.50
2022-10-20T12:02:23.296Z,1017.49
2022-10-20T12:03:24.282Z,1017.49
2022-10-20T12:04:25.280Z,1017.47
2022-10-20T12:05:25.982Z,1017.49
2022-10-20T12:06:26.472Z,1017.48
2022-10-20T12:07:26.975Z,1017.50
2022-10-20T12:08:30.313Z,1017.48
2022-10-20T12:10:27.911Z,1017.46
2022-10-20T12:11:29.409Z,1017.44
2022-10-20T12:12:30.415Z,1017.46
2022-10-20T12:13:30.910Z,1017.46
2022-10-20T12:14:31.904Z,1017.46
2022-10-20T12:15:32.437Z,1017.48
2022-10-20T12:16:32.931Z,1017.45
2022-10-20T12:17:33.936Z,1017.44
2022-10-20T12:18:34.431Z,1017.44
2022-10-20T12:19:34.931Z,1017.45